createdAt,value
2018-02-11T00:00:06.281Z,1004.78
2018-02-11T00:01:06.313Z,1004.79
2018-02-11T00:02:06.658Z,1004.76
2018-02-11T00:03:06.313Z,1004.73
2018-02-11T00:04:06.429Z,1004.73
2018-02-11T00:05:06.387Z,1004.72
2018-02-11T00:06:06.483Z,1004.69
2018-02-11T00:07:06.494Z,1004.67
2018-02-11T00:08:06.525Z,1004.62
2018-02-11T00:09:06.897Z,1004.59
2018-02-11T00:10:06.515Z,1004.62
2018-02-11T00:11:06.582Z,1004.60
2018-02-11T00:12:06.568Z,1004.58
2018-02-11T00:13:06.619Z,1004.57
2018-02-11T00:14:06.703Z,1004.58
2018-02-11T00:15:06.732Z,1004.58
2018-02-11T00:16:07.132Z,1004.57
2018-02-11T00:17:06.793Z,1004.56
2018-02-11T00:18:06.825Z,1004.51
2018-02-11T00:20:06.903Z,1004.47
2018-02-11T00:23:07.257Z,1004.43
2018-02-11T00:24:07.129Z,1004.38
2018-02-11T00:25:06.950Z,1004.37
2018-02-11T00:26:06.982Z,1004.38
2018-02-11T00:27:07.022Z,1004.37
2018-02-11T00:29:07.437Z,1004.38
2018-02-11T00:31:07.350Z,1004.37
2018-02-11T00:33:07.242Z,1004.31
2018-02-11T00:34:07.222Z,1004.32
2018-02-11T00:35:07.371Z,1004.37
2018-02-11T00:36:07.740Z,1004.34
2018-02-11T00:37:07.364Z,1004.30
2018-02-11T00:39:07.431Z,1004.21
2018-02-11T00:41:07.451Z,1004.20
2018-02-11T00:43:07.959Z,1004.16
2018-02-11T00:44:07.545Z,1004.14
2018-02-11T00:45:07.643Z,1004.13
2018-02-11T00:46:07.870Z,1004.08
2018-02-11T00:49:08.156Z,1003.97
2018-02-11T00:53:10.987Z,1003.87
2018-02-11T00:56:08.408Z,1003.87
2018-02-11T00:58:07.927Z,1003.79
2018-02-11T00:59:08.160Z,1003.74
2018-02-11T01:00:09.094Z,1003.73
2018-02-11T01:01:08.028Z,1003.66
2018-02-11T01:02:08.166Z,1003.65
2018-02-11T01:03:08.450Z,1003.63
2018-02-11T01:04:08.156Z,1003.64
2018-02-11T01:05:08.331Z,1003.63
2018-02-11T01:06:08.237Z,1003.54
2018-02-11T01:07:08.287Z,1003.56
2018-02-11T01:08:08.349Z,1003.56
2018-02-11T01:10:08.919Z,1003.49
2018-02-11T01:11:08.362Z,1003.46
2018-02-11T01:12:08.336Z,1003.44
2018-02-11T01:13:08.381Z,1003.47
2018-02-11T01:14:08.389Z,1003.42
2018-02-11T01:16:08.851Z,1003.36
2018-02-11T01:17:08.481Z,1003.38
2018-02-11T01:20:08.797Z,1003.33
2018-02-11T01:21:08.595Z,1003.35
2018-02-11T01:22:09.020Z,1003.34
2018-02-11T01:23:10.066Z,1003.34
2018-02-11T01:24:08.794Z,1003.29
2018-02-11T01:25:08.926Z,1003.29
2018-02-11T01:26:08.965Z,1003.23
2018-02-11T01:27:08.873Z,1003.20
2018-02-11T01:28:09.015Z,1003.16
2018-02-11T01:30:08.941Z,1003.09
2018-02-11T01:31:08.967Z,1003.10
2018-02-11T01:33:09.278Z,1002.97
2018-02-11T01:34:09.210Z,1002.92
2018-02-11T01:35:09.032Z,1002.86
2018-02-11T01:36:09.037Z,1002.79
2018-02-11T01:37:09.143Z,1002.73
2018-02-11T01:38:09.098Z,1002.69
2018-02-11T01:39:09.512Z,1002.70
2018-02-11T01:40:09.211Z,1002.62
2018-02-11T01:41:09.257Z,1002.54
2018-02-11T01:42:09.220Z,1002.48
2018-02-11T01:43:09.261Z,1002.43
2018-02-11T01:46:09.743Z,1002.34
2018-02-11T01:49:09.420Z,1002.30
2018-02-11T01:50:09.985Z,1002.29
2018-02-11T01:52:10.042Z,1002.22
2018-02-11T01:59:10.114Z,1001.78
2018-02-11T02:01:09.863Z,1001.70
2018-02-11T02:02:09.871Z,1001.67
2018-02-11T02:03:09.833Z,1001.63
2018-02-11T02:04:09.887Z,1001.64
2018-02-11T02:07:10.324Z,1001.61
2018-02-11T02:08:10.063Z,1001.57
2018-02-11T02:10:10.091Z,1001.52
2018-02-11T02:12:10.206Z,1001.37
2018-02-11T02:13:10.128Z,1001.34
2018-02-11T02:15:10.841Z,1001.28
2018-02-11T02:17:10.368Z,1001.31
2018-02-11T02:18:10.291Z,1001.33
2018-02-11T02:20:10.334Z,1001.30
2018-02-11T02:23:10.803Z,1001.27
2018-02-11T02:28:17.147Z,1001.17
2018-02-11T02:29:10.667Z,1001.20
2018-02-11T02:30:10.664Z,1001.15
2018-02-11T02:32:10.722Z,1001.12
2018-02-11T02:33:10.728Z,1001.11
2018-02-11T02:34:10.813Z,1001.05
2018-02-11T02:35:10.791Z,1001.03
2018-02-11T02:36:11.123Z,1000.99
2018-02-11T02:39:10.904Z,1000.89
2018-02-11T02:40:10.977Z,1000.88
2018-02-11T02:42:11.089Z,1000.77
2018-02-11T02:43:11.379Z,1000.74
2018-02-11T02:46:11.108Z,1000.72
2018-02-11T02:47:11.127Z,1000.61
2018-02-11T02:48:11.248Z,1000.65
2018-02-11T02:49:11.208Z,1000.64
2018-02-11T02:50:11.594Z,1000.59
2018-02-11T02:51:11.451Z,1000.56
2018-02-11T02:53:11.307Z,1000.46
2018-02-11T02:55:11.367Z,1000.38
2018-02-11T02:57:11.888Z,1000.35
2018-02-11T02:59:11.522Z,1000.27
2018-02-11T03:00:11.618Z,1000.27
2018-02-11T03:01:11.538Z,1000.17
2018-02-11T03:02:11.626Z,1000.11
2018-02-11T03:03:11.965Z,1000.06
2018-02-11T03:04:11.958Z,999.98
2018-02-11T03:05:11.658Z,999.93
2018-02-11T03:07:11.729Z,999.91
2018-02-11T03:08:11.769Z,999.90
2018-02-11T03:10:12.177Z,999.91
2018-02-11T03:14:11.977Z,999.79
2018-02-11T03:16:12.131Z,999.72
2018-02-11T03:17:12.381Z,999.72
2018-02-11T03:19:12.073Z,999.63
2018-02-11T03:21:12.408Z,999.55
2018-02-11T03:22:12.178Z,999.58
2018-02-11T03:23:12.192Z,999.52
2018-02-11T03:24:12.526Z,999.47
2018-02-11T03:27:12.677Z,999.37
2018-02-11T03:30:12.763Z,999.30
2018-02-11T03:31:12.528Z,999.28
2018-02-11T03:35:12.538Z,999.20
2018-02-11T03:36:12.690Z,999.21
2018-02-11T03:41:13.070Z,999.06
2018-02-11T03:45:12.902Z,999.06
2018-02-11T03:51:13.686Z,998.80
2018-02-11T03:56:13.413Z,998.67
2018-02-11T04:00:13.656Z,998.65
2018-02-11T04:03:13.421Z,998.61
2018-02-11T04:04:13.396Z,998.62
2018-02-11T04:05:13.438Z,998.63
2018-02-11T04:06:13.557Z,998.57
2018-02-11T04:07:13.490Z,998.57
2018-02-11T04:08:13.519Z,998.58
2018-02-11T04:09:13.612Z,998.58
2018-02-11T04:10:13.591Z,998.60
2018-02-11T04:11:13.657Z,998.58
2018-02-11T04:12:14.014Z,998.53
2018-02-11T04:14:13.739Z,998.45
2018-02-11T04:15:13.740Z,998.48
2018-02-11T04:16:13.818Z,998.42
2018-02-11T04:17:14.158Z,998.41
2018-02-11T04:18:14.166Z,998.36
2018-02-11T04:20:13.921Z,998.27
2018-02-11T04:21:13.899Z,998.29
2018-02-11T04:22:14.100Z,998.23
2018-02-11T04:23:13.970Z,998.22
2018-02-11T04:24:14.303Z,998.21
2018-02-11T04:25:14.036Z,998.19
2018-02-11T04:26:14.055Z,998.16
2018-02-11T04:27:14.143Z,998.16
2018-02-11T04:28:14.101Z,998.10
2018-02-11T04:29:14.181Z,998.14
2018-02-11T04:30:14.480Z,998.11
2018-02-11T04:31:14.240Z,998.09
2018-02-11T04:32:14.289Z,998.11
2018-02-11T04:33:15.351Z,998.07
2018-02-11T04:34:14.317Z,998.08
2018-02-11T04:35:14.339Z,998.10
2018-02-11T04:37:14.667Z,998.04
2018-02-11T04:39:14.526Z,998.02
2018-02-11T04:40:14.526Z,997.98
2018-02-11T04:42:14.713Z,997.87
2018-02-11T04:44:14.950Z,997.85
2018-02-11T04:45:14.768Z,997.78
2018-02-11T04:47:14.712Z,997.74
2018-02-11T04:50:15.183Z,997.68
2018-02-11T04:51:14.802Z,997.65
2018-02-11T04:53:14.895Z,997.54
2018-02-11T04:54:14.867Z,997.51
2018-02-11T04:55:14.897Z,997.59
2018-02-11T04:56:15.313Z,997.57
2018-02-11T04:58:15.037Z,997.55
2018-02-11T04:59:15.023Z,997.52
2018-02-11T05:01:15.073Z,997.53
2018-02-11T05:02:15.126Z,997.57
2018-02-11T05:03:15.520Z,997.56
2018-02-11T05:04:15.184Z,997.52
2018-02-11T05:07:15.334Z,997.49
2018-02-11T05:09:15.812Z,997.37
2018-02-11T05:12:15.413Z,997.28
2018-02-11T05:13:15.480Z,997.33
2018-02-11T05:18:16.026Z,997.21
2018-02-11T05:20:15.709Z,997.23
2018-02-11T05:22:15.959Z,997.23
2018-02-11T05:29:16.488Z,997.16
2018-02-11T05:30:17.410Z,997.16
2018-02-11T05:31:16.305Z,997.13
2018-02-11T05:32:16.068Z,997.06
2018-02-11T05:33:16.096Z,997.05
2018-02-11T05:34:16.047Z,997.06
2018-02-11T05:35:18.161Z,997.01
2018-02-11T05:36:16.458Z,997.03
2018-02-11T05:37:16.154Z,997.00
2018-02-11T05:38:16.224Z,997.01
2018-02-11T05:39:16.267Z,997.02
2018-02-11T05:40:16.296Z,996.96
2018-02-11T05:41:16.360Z,996.97
2018-02-11T05:42:16.302Z,996.96
2018-02-11T05:43:16.708Z,996.98
2018-02-11T05:44:16.414Z,996.96
2018-02-11T05:45:16.373Z,996.98
2018-02-11T05:46:16.515Z,996.98
2018-02-11T05:47:16.496Z,997.02
2018-02-11T05:48:16.628Z,996.93
2018-02-11T05:49:16.521Z,996.94
2018-02-11T05:50:16.950Z,996.89
2018-02-11T05:51:16.566Z,996.93
2018-02-11T05:52:16.651Z,996.93
2018-02-11T05:53:16.677Z,996.87
2018-02-11T05:54:17.116Z,996.87
2018-02-11T05:55:16.766Z,996.88
2018-02-11T05:56:16.697Z,996.84
2018-02-11T05:57:17.076Z,996.89
2018-02-11T05:58:17.201Z,996.87
2018-02-11T05:59:16.869Z,996.89
2018-02-11T06:00:17.229Z,996.87
2018-02-11T06:01:16.998Z,996.83
2018-02-11T06:02:17.006Z,996.81
2018-02-11T06:04:17.335Z,996.81
2018-02-11T06:05:17.031Z,996.82
2018-02-11T06:06:17.205Z,996.80
2018-02-11T06:07:17.019Z,996.77
2018-02-11T06:08:17.076Z,996.82
2018-02-11T06:09:17.157Z,996.79
2018-02-11T06:10:17.106Z,996.73
2018-02-11T06:11:17.518Z,996.80
2018-02-11T06:12:17.386Z,996.82
2018-02-11T06:13:17.266Z,996.77
2018-02-11T06:14:17.276Z,996.79
2018-02-11T06:16:17.449Z,996.78
2018-02-11T06:17:17.345Z,996.82
2018-02-11T06:18:17.414Z,996.74
2018-02-11T06:19:17.400Z,996.80
2018-02-11T06:20:17.446Z,996.82
2018-02-11T06:21:17.438Z,996.77
2018-02-11T06:22:17.919Z,996.77
2018-02-11T06:23:17.678Z,996.78
2018-02-11T06:24:17.588Z,996.75
2018-02-11T06:25:17.577Z,996.78
2018-02-11T06:26:17.712Z,996.76
2018-02-11T06:27:17.639Z,996.80
2018-02-11T06:28:18.046Z,996.73
2018-02-11T06:29:17.718Z,996.74
2018-02-11T06:30:17.787Z,996.78
2018-02-11T06:31:17.825Z,996.76
2018-02-11T06:32:17.760Z,996.80
2018-02-11T06:33:17.869Z,996.78
2018-02-11T06:34:18.180Z,996.80
2018-02-11T06:35:17.871Z,996.82
2018-02-11T06:36:17.897Z,996.77
2018-02-11T06:37:17.928Z,996.82
2018-02-11T06:38:18.185Z,996.82
2018-02-11T06:39:18.018Z,996.82
2018-02-11T06:40:18.372Z,996.77
2018-02-11T06:41:18.073Z,996.77
2018-02-11T06:42:18.096Z,996.77
2018-02-11T06:43:18.207Z,996.82
2018-02-11T06:44:18.239Z,996.82
2018-02-11T06:49:18.767Z,996.82
2018-02-11T06:50:18.457Z,996.80
2018-02-11T06:51:18.362Z,996.80
2018-02-11T06:52:18.370Z,996.77
2018-02-11T06:54:18.432Z,996.76
2018-02-11T06:56:18.845Z,996.82
2018-02-11T06:57:18.518Z,996.84
2018-02-11T07:02:19.251Z,996.79
2018-02-11T07:03:18.674Z,996.74
2018-02-11T07:04:18.712Z,996.72
2018-02-11T07:05:18.760Z,996.70
2018-02-11T07:06:18.811Z,996.67
2018-02-11T07:07:18.791Z,996.63
2018-02-11T07:08:18.881Z,996.61
2018-02-11T07:09:18.877Z,996.58
2018-02-11T07:11:18.926Z,996.59
2018-02-11T07:12:19.012Z,996.72
2018-02-11T07:13:19.052Z,996.85
2018-02-11T07:14:19.374Z,996.84
2018-02-11T07:15:19.033Z,996.81
2018-02-11T07:16:19.064Z,996.77
2018-02-11T07:17:19.094Z,996.84
2018-02-11T07:18:19.151Z,996.85
2018-02-11T07:19:19.577Z,996.84
2018-02-11T07:20:19.552Z,996.87
2018-02-11T07:21:19.208Z,996.82
2018-02-11T07:22:19.315Z,996.85
2018-02-11T07:23:19.282Z,996.87
2018-02-11T07:24:19.391Z,996.85
2018-02-11T07:25:19.516Z,996.87
2018-02-11T07:26:19.703Z,996.87
2018-02-11T07:27:19.408Z,996.86
2018-02-11T07:28:19.493Z,996.80
2018-02-11T07:29:19.464Z,996.78
2018-02-11T07:30:19.550Z,996.79
2018-02-11T07:31:19.568Z,996.72
2018-02-11T07:32:19.538Z,996.72
2018-02-11T07:33:19.970Z,996.69
2018-02-11T07:35:19.885Z,996.65
2018-02-11T07:36:19.679Z,996.66
2018-02-11T07:37:19.771Z,996.64
2018-02-11T07:38:19.823Z,996.56
2018-02-11T07:39:19.779Z,996.68
2018-02-11T07:40:20.138Z,996.68
2018-02-11T07:41:19.846Z,996.78
2018-02-11T07:42:19.825Z,996.75
2018-02-11T07:43:19.869Z,996.74
2018-02-11T07:44:19.959Z,996.74
2018-02-11T07:45:19.922Z,996.82
2018-02-11T07:46:20.004Z,996.79
2018-02-11T07:47:20.387Z,996.74
2018-02-11T07:48:20.086Z,996.73
2018-02-11T07:49:20.132Z,996.75
2018-02-11T07:50:20.065Z,996.73
2018-02-11T07:51:20.162Z,996.72
2018-02-11T07:54:21.058Z,996.74
2018-02-11T07:56:20.313Z,996.82
2018-02-11T07:57:20.324Z,996.91
2018-02-11T07:58:20.299Z,996.89
2018-02-11T07:59:20.393Z,996.80
2018-02-11T08:01:20.811Z,996.88
2018-02-11T08:02:20.442Z,996.93
2018-02-11T08:03:20.473Z,996.95
2018-02-11T08:04:20.731Z,996.95
2018-02-11T08:05:20.580Z,996.99
2018-02-11T08:06:20.546Z,996.98
2018-02-11T08:07:20.587Z,996.93
2018-02-11T08:08:20.962Z,996.92
2018-02-11T08:09:20.705Z,996.98
2018-02-11T08:10:20.773Z,996.90
2018-02-11T08:13:20.756Z,996.96
2018-02-11T08:14:21.017Z,997.00
2018-02-11T08:17:21.234Z,997.00
2018-02-11T08:18:20.921Z,997.02
2018-02-11T08:19:20.987Z,996.98
2018-02-11T08:21:21.241Z,997.01
2018-02-11T08:22:21.047Z,996.99
2018-02-11T08:26:21.498Z,997.06
2018-02-11T08:32:21.657Z,997.12
2018-02-11T08:33:22.871Z,997.09
2018-02-11T08:34:22.847Z,997.12
2018-02-11T08:35:21.452Z,997.11
2018-02-11T08:36:21.436Z,997.16
2018-02-11T08:37:21.460Z,997.23
2018-02-11T08:38:21.532Z,997.21
2018-02-11T08:39:21.876Z,997.23
2018-02-11T08:40:21.639Z,997.23
2018-02-11T08:41:21.596Z,997.29
2018-02-11T08:42:21.609Z,997.26
2018-02-11T08:43:21.670Z,997.25
2018-02-11T08:44:21.689Z,997.29
2018-02-11T08:45:21.709Z,997.28
2018-02-11T08:46:22.102Z,997.29
2018-02-11T08:47:21.768Z,997.24
2018-02-11T08:48:21.842Z,997.22
2018-02-11T08:50:22.044Z,997.29
2018-02-11T08:51:22.443Z,997.24
2018-02-11T08:52:22.282Z,997.18
2018-02-11T08:53:21.996Z,997.23
2018-02-11T08:54:22.011Z,997.21
2018-02-11T08:55:22.004Z,997.21
2018-02-11T08:56:22.077Z,997.21
2018-02-11T08:57:22.063Z,997.16
2018-02-11T08:58:22.430Z,997.16
2018-02-11T08:59:22.123Z,997.19
2018-02-11T09:00:22.159Z,997.18
2018-02-11T09:01:22.164Z,997.15
2018-02-11T09:02:22.435Z,997.14
2018-02-11T09:03:22.317Z,997.13
2018-02-11T09:04:22.603Z,997.12
2018-02-11T09:05:22.289Z,997.11
2018-02-11T09:06:22.319Z,997.09
2018-02-11T09:07:22.364Z,997.11
2018-02-11T09:08:22.592Z,997.12
2018-02-11T09:09:22.426Z,997.11
2018-02-11T09:10:22.788Z,997.04
2018-02-11T09:11:22.542Z,997.10
2018-02-11T09:12:22.495Z,997.12
2018-02-11T09:13:22.603Z,997.20
2018-02-11T09:14:22.781Z,997.15
2018-02-11T09:15:22.640Z,997.25
2018-02-11T09:16:23.136Z,997.24
2018-02-11T09:17:22.735Z,997.27
2018-02-11T09:18:22.728Z,997.23
2018-02-11T09:19:23.200Z,997.23
2018-02-11T09:20:23.253Z,997.22
2018-02-11T09:21:22.794Z,997.27
2018-02-11T09:22:23.182Z,997.25
2018-02-11T09:23:22.854Z,997.15
2018-02-11T09:24:22.893Z,997.17
2018-02-11T09:26:22.961Z,997.13
2018-02-11T09:27:22.964Z,997.14
2018-02-11T09:28:23.348Z,997.23
2018-02-11T09:29:23.077Z,997.20
2018-02-11T09:30:23.047Z,997.18
2018-02-11T09:31:23.092Z,997.20
2018-02-11T09:32:23.139Z,997.23
2018-02-11T09:33:23.197Z,997.20
2018-02-11T09:35:23.534Z,997.25
2018-02-11T09:36:23.230Z,997.25
2018-02-11T09:38:23.374Z,997.26
2018-02-11T09:39:23.309Z,997.23
2018-02-11T09:41:23.725Z,997.27
2018-02-11T09:42:23.409Z,997.26
2018-02-11T09:44:23.659Z,997.25
2018-02-11T09:45:23.474Z,997.31
2018-02-11T09:47:23.903Z,997.25
2018-02-11T09:48:23.640Z,997.28
2018-02-11T09:53:24.348Z,997.16
2018-02-11T09:54:23.786Z,997.20
2018-02-11T09:55:23.878Z,997.17
2018-02-11T09:56:23.870Z,997.24
2018-02-11T09:57:23.862Z,997.18
2018-02-11T09:58:24.025Z,997.20
2018-02-11T09:59:24.306Z,997.20
2018-02-11T10:00:24.205Z,997.18
2018-02-11T10:08:24.838Z,997.19
2018-02-11T10:09:24.278Z,997.16
2018-02-11T10:10:24.345Z,997.20
2018-02-11T10:11:24.350Z,997.20
2018-02-11T10:12:24.424Z,997.20
2018-02-11T10:14:24.716Z,997.21
2018-02-11T10:15:24.376Z,997.18
2018-02-11T10:16:24.402Z,997.24
2018-02-11T10:17:24.571Z,997.22
2018-02-11T10:18:24.866Z,997.22
2018-02-11T10:19:24.566Z,997.31
2018-02-11T10:20:24.594Z,997.28
2018-02-11T10:21:24.878Z,997.30
2018-02-11T10:22:24.598Z,997.35
2018-02-11T10:23:24.634Z,997.36
2018-02-11T10:24:24.746Z,997.29
2018-02-11T10:25:24.665Z,997.29
2018-02-11T10:26:25.002Z,997.27
2018-02-11T10:27:24.855Z,997.31
2018-02-11T10:28:25.065Z,997.32
2018-02-11T10:29:24.805Z,997.38
2018-02-11T10:30:24.889Z,997.34
2018-02-11T10:31:24.851Z,997.33
2018-02-11T10:32:24.929Z,997.32
2018-02-11T10:33:24.983Z,997.33
2018-02-11T10:34:25.028Z,997.31
2018-02-11T10:35:25.358Z,997.24
2018-02-11T10:36:25.050Z,997.28
2018-02-11T10:37:25.185Z,997.30
2018-02-11T10:38:25.082Z,997.27
2018-02-11T10:39:25.157Z,997.27
2018-02-11T10:41:25.510Z,997.34
2018-02-11T10:42:25.176Z,997.37
2018-02-11T10:43:25.276Z,997.37
2018-02-11T10:44:25.234Z,997.37
2018-02-11T10:45:25.332Z,997.35
2018-02-11T10:46:25.319Z,997.38
2018-02-11T10:47:25.399Z,997.36
2018-02-11T10:49:25.788Z,997.33
2018-02-11T10:50:25.449Z,997.31
2018-02-11T10:51:25.469Z,997.35
2018-02-11T10:52:25.583Z,997.35
2018-02-11T10:53:25.558Z,997.33
2018-02-11T10:54:25.632Z,997.32
2018-02-11T10:55:25.640Z,997.35
2018-02-11T10:56:25.951Z,997.34
2018-02-11T10:57:25.750Z,997.37
2018-02-11T10:58:25.674Z,997.35
2018-02-11T11:02:26.379Z,997.34
2018-02-11T11:03:25.848Z,997.41
2018-02-11T11:04:25.905Z,997.42
2018-02-11T11:05:25.864Z,997.40
2018-02-11T11:06:25.897Z,997.33
2018-02-11T11:07:25.926Z,997.36
2018-02-11T11:08:26.043Z,997.38
2018-02-11T11:09:26.331Z,997.35
2018-02-11T11:10:26.011Z,997.36
2018-02-11T11:11:26.056Z,997.33
2018-02-11T11:12:26.203Z,997.38
2018-02-11T11:13:26.169Z,997.35
2018-02-11T11:14:26.220Z,997.34
2018-02-11T11:15:26.189Z,997.30
2018-02-11T11:17:26.588Z,997.34
2018-02-11T11:18:26.441Z,997.34
2018-02-11T11:19:26.367Z,997.30
2018-02-11T11:20:26.403Z,997.31
2018-02-11T11:22:26.442Z,997.29
2018-02-11T11:23:26.487Z,997.32
2018-02-11T11:24:26.759Z,997.37
2018-02-11T11:25:26.516Z,997.31
2018-02-11T11:26:26.586Z,997.33
2018-02-11T11:28:26.639Z,997.31
2018-02-11T11:29:26.667Z,997.25
2018-02-11T11:30:26.982Z,997.26
2018-02-11T11:32:26.691Z,997.21
2018-02-11T11:39:27.312Z,997.28
2018-02-11T11:40:26.934Z,997.27
2018-02-11T11:41:26.941Z,997.27
2018-02-11T11:42:26.977Z,997.24
2018-02-11T11:43:27.206Z,997.27
2018-02-11T11:44:27.146Z,997.29
2018-02-11T11:45:27.139Z,997.29
2018-02-11T11:46:27.104Z,997.28
2018-02-11T11:47:27.125Z,997.23
2018-02-11T11:48:27.228Z,997.19
2018-02-11T11:49:27.342Z,997.21
2018-02-11T11:50:27.230Z,997.18
2018-02-11T11:51:27.559Z,997.25
2018-02-11T11:52:27.358Z,997.22
2018-02-11T11:53:27.363Z,997.21
2018-02-11T11:54:27.334Z,997.25
2018-02-11T11:55:27.366Z,997.18
2018-02-11T11:56:27.425Z,997.24
2018-02-11T11:57:27.792Z,997.25
2018-02-11T11:58:27.470Z,997.25
2018-02-11T11:59:27.664Z,997.21
2018-02-11T12:00:27.599Z,997.23
2018-02-11T12:01:27.609Z,997.24
2018-02-11T12:02:27.596Z,997.22
2018-02-11T12:03:28.025Z,997.22
2018-02-11T12:04:27.644Z,997.25
2018-02-11T12:05:27.816Z,997.23
2018-02-11T12:09:25.664Z,997.19
2018-02-11T12:10:25.667Z,997.20
2018-02-11T12:12:25.750Z,997.13
2018-02-11T12:13:25.774Z,997.19
2018-02-11T12:14:25.734Z,997.18
2018-02-11T12:18:26.330Z,997.23
2018-02-11T12:19:25.919Z,997.30
2018-02-11T12:20:25.919Z,997.31
2018-02-11T12:21:25.978Z,997.29
2018-02-11T12:24:26.615Z,997.24
2018-02-11T12:25:26.055Z,997.26
2018-02-11T12:27:26.166Z,997.28
2018-02-11T12:28:26.194Z,997.30
2018-02-11T12:30:26.599Z,997.32
2018-02-11T12:31:26.228Z,997.32
2018-02-11T17:46:00.300Z,999.77
2018-02-11T17:47:00.316Z,999.81
2018-02-11T17:47:59.980Z,999.86
2018-02-11T17:49:00.039Z,999.87
2018-02-11T17:50:00.011Z,999.90
2018-02-11T17:51:00.051Z,999.95
2018-02-11T17:52:00.340Z,999.93
2018-02-11T17:53:00.151Z,999.95
2018-02-11T17:54:00.199Z,999.97
2018-02-11T17:55:00.148Z,1000.00
2018-02-11T17:56:00.165Z,1000.01
2018-02-11T17:57:00.247Z,1000.04
2018-02-11T17:58:00.713Z,1000.08
2018-02-11T17:59:00.201Z,1000.08
2018-02-11T18:00:00.252Z,1000.06
2018-02-11T18:01:00.309Z,1000.05
2018-02-11T18:02:00.310Z,1000.07
2018-02-11T18:03:00.356Z,1000.05
2018-02-11T18:04:00.768Z,1000.06
2018-02-11T18:05:00.387Z,1000.06
2018-02-11T18:06:00.474Z,1000.10
2018-02-11T18:07:00.499Z,1000.12
2018-02-11T18:08:00.547Z,1000.12
2018-02-11T18:09:00.639Z,1000.15
2018-02-11T18:10:00.871Z,1000.12
2018-02-11T18:11:00.633Z,1000.08
2018-02-11T18:12:00.627Z,1000.07
2018-02-11T18:13:00.625Z,1000.07
2018-02-11T18:14:00.665Z,1000.06
2018-02-11T18:15:00.676Z,1000.05
2018-02-11T18:16:00.950Z,1000.07
2018-02-11T18:17:00.766Z,1000.08
2018-02-11T18:18:00.915Z,1000.09
2018-02-11T18:19:00.842Z,1000.12
2018-02-11T18:20:00.817Z,1000.21
2018-02-11T18:21:00.865Z,1000.16
2018-02-11T18:22:00.977Z,1000.19
2018-02-11T18:23:00.901Z,1000.11
2018-02-11T18:24:00.992Z,1000.13
2018-02-11T18:26:49.088Z,1000.18
2018-02-11T18:27:49.388Z,1000.22
2018-02-11T18:28:49.112Z,1000.24
2018-02-11T18:29:49.146Z,1000.22
2018-02-11T18:30:49.372Z,1000.24
2018-02-11T18:31:49.235Z,1000.26
2018-02-11T18:32:49.306Z,1000.28
2018-02-11T18:33:49.331Z,1000.32
2018-02-11T18:34:49.340Z,1000.30
2018-02-11T18:35:49.360Z,1000.34
2018-02-11T18:36:49.372Z,1000.37
2018-02-11T18:37:49.465Z,1000.37
2018-02-11T18:38:49.578Z,1000.40
2018-02-11T18:39:49.743Z,1000.44
2018-02-11T18:40:49.477Z,1000.41
2018-02-11T18:41:49.539Z,1000.40
2018-02-11T18:42:49.542Z,1000.45
2018-02-11T18:43:49.597Z,1000.47
2018-02-11T18:44:49.603Z,1000.49
2018-02-11T18:45:50.009Z,1000.55
2018-02-11T18:46:49.652Z,1000.48
2018-02-11T18:47:49.684Z,1000.45
2018-02-11T18:48:49.777Z,1000.44
2018-02-11T18:49:49.777Z,1000.52
2018-02-11T18:50:50.006Z,1000.54
2018-02-11T18:51:49.908Z,1000.52
2018-02-11T18:52:50.135Z,1000.48
2018-02-11T18:53:49.856Z,1000.55
2018-02-11T18:54:49.892Z,1000.49
2018-02-11T18:55:49.957Z,1000.48
2018-02-11T18:56:49.959Z,1000.44
2018-02-11T18:57:50.379Z,1000.48
2018-02-11T18:58:50.330Z,1000.49
2018-02-11T18:59:50.048Z,1000.46
2018-02-11T19:00:50.090Z,1000.46
2018-02-11T19:01:50.154Z,1000.48
2018-02-11T19:02:50.127Z,1000.46
2018-02-11T19:03:50.184Z,1000.48
2018-02-11T19:04:50.569Z,1000.48
2018-02-11T19:05:50.816Z,1000.46
2018-02-11T19:06:50.446Z,1000.50
2018-02-11T19:07:50.448Z,1000.49
2018-02-11T19:08:50.716Z,1000.50
2018-02-11T19:09:50.367Z,1000.51
2018-02-11T19:10:50.730Z,1000.54
2018-02-11T19:11:50.457Z,1000.55
2018-02-11T19:12:50.934Z,1000.53
2018-02-11T19:13:50.590Z,1000.56
2018-02-11T19:14:50.513Z,1000.60
2018-02-11T19:15:50.597Z,1000.61
2018-02-11T19:16:50.563Z,1000.66
2018-02-11T19:17:50.884Z,1000.68
2018-02-11T19:18:50.774Z,1000.65
2018-02-11T19:19:51.884Z,1000.64
2018-02-11T19:20:51.140Z,1000.70
2018-02-11T19:21:50.707Z,1000.69
2018-02-11T19:22:51.185Z,1000.65
2018-02-11T19:23:51.071Z,1000.66
2018-02-11T19:24:50.915Z,1000.70
2018-02-11T19:25:50.897Z,1000.68
2018-02-11T19:26:50.887Z,1000.74
2018-02-11T19:27:50.895Z,1000.76
2018-02-11T19:28:50.949Z,1000.71
2018-02-11T19:29:50.989Z,1000.77
2018-02-11T19:30:51.321Z,1000.74
2018-02-11T19:31:51.058Z,1000.81
2018-02-11T19:32:51.086Z,1000.77
2018-02-11T19:33:51.530Z,1000.72
2018-02-11T19:34:51.173Z,1000.70
2018-02-11T19:35:51.150Z,1000.62
2018-02-11T19:36:51.558Z,1000.59
2018-02-11T19:37:51.180Z,1000.67
2018-02-11T19:38:51.253Z,1000.66
2018-02-11T19:39:51.260Z,1000.67
2018-02-11T19:40:51.278Z,1000.67
2018-02-11T19:41:51.304Z,1000.68
2018-02-11T19:42:51.643Z,1000.73
2018-02-11T19:43:51.451Z,1000.74
2018-02-11T19:44:51.337Z,1000.79
2018-02-11T19:45:51.815Z,1000.76
2018-02-11T19:46:51.467Z,1000.79
2018-02-11T19:47:51.468Z,1000.78
2018-02-11T19:48:51.992Z,1000.83
2018-02-11T19:49:51.535Z,1000.83
2018-02-11T19:50:51.567Z,1000.82
2018-02-11T19:51:51.640Z,1000.77
2018-02-11T19:52:51.607Z,1000.77
2018-02-11T19:53:51.686Z,1000.83
2018-02-11T19:54:51.740Z,1000.81
2018-02-11T19:55:52.099Z,1000.81
2018-02-11T19:56:51.737Z,1000.83
2018-02-11T19:57:51.846Z,1000.85
2018-02-11T19:58:52.067Z,1000.83
2018-02-11T19:59:51.839Z,1000.88
2018-02-11T20:00:51.901Z,1000.83
2018-02-11T20:01:52.192Z,1000.86
2018-02-11T20:02:51.924Z,1000.84
2018-02-11T20:03:52.017Z,1000.80
2018-02-11T20:04:52.208Z,1000.78
2018-02-11T20:05:52.255Z,1000.82
2018-02-11T20:06:52.046Z,1000.78
2018-02-11T20:07:52.455Z,1000.80
2018-02-11T20:08:52.175Z,1000.75
2018-02-11T20:09:52.192Z,1000.72
2018-02-11T20:10:52.333Z,1000.71
2018-02-11T20:11:52.230Z,1000.74
2018-02-11T20:12:52.255Z,1000.71
2018-02-11T20:13:52.723Z,1000.76
2018-02-11T20:14:52.354Z,1000.75
2018-02-11T20:15:52.307Z,1000.74
2018-02-11T20:16:52.333Z,1000.75
2018-02-11T20:17:52.576Z,1000.80
2018-02-11T20:18:52.365Z,1000.79
2018-02-11T20:19:52.445Z,1000.81
2018-02-11T20:20:53.016Z,1000.88
2018-02-11T20:21:52.484Z,1000.90
2018-02-11T20:22:52.561Z,1000.91
2018-02-11T20:23:52.549Z,1000.90
2018-02-11T20:24:52.602Z,1000.93
2018-02-11T20:25:52.553Z,1000.96
2018-02-11T20:26:53.032Z,1000.92
2018-02-11T20:27:52.622Z,1000.92
2018-02-11T20:28:52.753Z,1000.93
2018-02-11T20:29:52.717Z,1000.96
2018-02-11T20:30:52.792Z,1001.02
2018-02-11T20:31:52.790Z,1000.98
2018-02-11T20:32:53.134Z,1000.98
2018-02-11T20:33:52.870Z,1000.98
2018-02-11T20:34:52.920Z,1000.98
2018-02-11T20:35:53.076Z,1000.98
2018-02-11T20:36:52.973Z,1000.99
2018-02-11T20:37:52.911Z,1000.97
2018-02-11T20:38:53.263Z,1001.00
2018-02-11T20:39:53.044Z,1000.99
2018-02-11T20:40:53.098Z,1001.04
2018-02-11T20:41:53.095Z,1001.00
2018-02-11T20:42:53.128Z,1001.03
2018-02-11T20:43:53.082Z,1001.02
2018-02-11T20:44:53.456Z,1001.03
2018-02-11T20:45:53.280Z,1001.05
2018-02-11T20:46:53.306Z,1001.09
2018-02-11T20:47:53.381Z,1001.08
2018-02-11T20:48:53.290Z,1001.11
2018-02-11T20:49:53.451Z,1001.09
2018-02-11T20:50:53.807Z,1001.11
2018-02-11T20:51:53.388Z,1001.14
2018-02-11T20:52:53.444Z,1001.14
2018-02-11T20:53:53.392Z,1001.14